Morristown NJ Real Estate Sales For June 2014

IMG_9412For the month of June 2014 there were 17 homes sold in Morristown NJ. Currently there are 58 homes that are available for sale and there are 37 houses that are currently under contract.

The current absorption rate was around 3.69 months for June. A balance market is considered between 5-7 months, so right now Morristown is strongly a seller’s market as homes are selling rapidly in Morristown and there are few houses available for sale.

Below are the Morristown NJ real estate sales for June 2014:

Street Number Street Name Sales Price List Price Style Of Home Beds Bath Days On Market Closing Date
62 Walker Avenue 391500 400000 Colonial, 3 1.1 24 6/30/2014
10 Windmill Drive 391100 389900 TwnIntUn,MultiFlr 2 2.1 15 6/27/2014
106 Washington Avenue 710000 745000 Colonial, 4 2.1 139 6/26/2014
17 Olmstead Road 1550000 1525000 Colonial,Custom 5 4.1 18 6/26/2014
3 Shenandoah Place 411500 389000 SplitLev, 3 2.1 19 6/26/2014
36 Georgian Road 625000 599000 Colonial, 3 1.2 12 6/25/2014
34 Colonial Road 305000 299900 Colonial,FixrUppr 3 2 72 6/24/2014
25 Phoenix Avenue 95000 114900 CapeCod, 4 2 0 6/20/2014
35 Ogden Place 755000 765900 Victrian, 5 4.1 0 6/19/2014
106 Early Street 385000 399900 Colonial, 4 1.1 91 6/18/2014
13E Dorado Drive 367000 385000 MultiFlr,TwnEndUn 2 2.1 14 6/18/2014
146 Mills Street 455000 427000 Colonial, 3 2.1 13 6/17/2014
17 Kenmuir Avenue 375000 364900 Colonial, 2 1.1 18 6/11/2014
2 Thomas Trail 465000 465000 TwnIntUn,MultiFlr 3 2.1 8 6/9/2014
29 Cutler Street 520000 529000 Colonial, 4 1.1 28 6/5/2014
7 Green Hill Road 480500 475000 Colonial, 3 2.1 1 6/4/2014
61-B Western Avenue 265000 278900 FirstFlr,OneFloor 2 1 354 6/2/2014

Morris Township NJ Real Estate Sales For June 2014

IMG_9419For the month of June 2014 there were 39 homes sold in Morris Township NJ. Currently there are 146 homes that are available for sale and there are 77 houses that are currently under contract.

The current absorption rate was around 3.74 months for June. A balance market is considered between 5-7 months, so right now Morris Township is strongly a seller’s market as homes are selling rapidly and there are few houses available for sale.

Below are the Morris Township NJ real estate sales for June 2014:

Street Number Street Name Sales Price List Price Style Of Home Beds Bath Days On Market Closing Date
7 Molly Stark Drive 437500 449900 Ranch, 4 3 41 6/30/2014
11 Whitney Farm Place 600000 600000 TwnIntUn,MultiFlr 3 2.1 32 6/30/2014
4 Evans Farm Road 650000 669000 RanchExp, 4 2.1 11 6/30/2014
14 Kissel Lane 665000 649900 Colonial, 4 2.1 7 6/27/2014
119 Burnham Road 419000 419000 CapeCod, 3 2.1 4 6/27/2014
9 Watnong Road 460000 465000 CapeCod, 4 2 54 6/26/2014
17 Davenport Place 467000 459900 TwnIntUn,MultiFlr 3 3 20 6/26/2014
157 Sussex Avenue 417500 424900 Bi-Level, 3 2 2 6/25/2014
64 Burnham Parkway 490000 500000 Bi-Level, 3 1.1 18 6/25/2014
13 Whitney Farm Place 629000 629000 TwnIntUn,MultiFlr 3 2.1 0 6/25/2014
12 Three Gables Road 805000 829900 Colonial, 4 2.2 85 6/24/2014
15 Whitney Farm Place 689000 689000 TwnEndUn,MultiFlr 3 2.1 49 6/23/2014
5 Brothers Place 538000 555000 Bi-Level, 4 3 16 6/20/2014
137 Lake Road 535000 550000 Bi-Level, 5 3 29 6/20/2014
9 Johnston Drive 491000 499900 Colonial, 4 2.1 27 6/19/2014
155 Western Avenue 121500 175000 Ranch, 1 1 167 6/18/2014
10 Kitchell Place 375000 387900 Ranch, 2 1 9 6/18/2014
11 Constitution Way 540000 550000 TwnEndUn,MultiFlr 3 2.1 37 6/17/2014
8 Cabell Court 625000 625000 TwnEndUn,MultiFlr 3 2.1 0 6/17/2014
24 Colonial Drive 645000 669000 SplitLev, 5 2.1 25 6/16/2014
15 Brandywine Terrace 620000 650000 Colonial, 4 3.1 55 6/16/2014
240 W Hanover Avenue 167100 150000 CapeCod,Colonial 2 1.1 39 6/16/2014
15 Dorothy Drive 482500 485000 Bi-Level, 4 2 8 6/13/2014
6 Croydon Road 999000 1025000 Colonial, 5 4.1 171 6/11/2014
7 Cadence Court 443000 459000 TwnIntUn,MultiFlr 4 3 109 6/11/2014
55 Ketch Road 505000 529000 Colonial, 4 2.1 21 6/11/2014
7 Crestview Terrace 760000 799000 Colonial, 5 3.1 140 6/10/2014
8 Tree Top Terrace 900000 925000 Custom, 5 4.2 18 6/9/2014
2 Cabell Court 605000 605000 TwnEndUn,MultiFlr 3 2.1 23 6/9/2014
21 Wood Road 1185000 1185000 Colonial, 6 4.2 7 6/9/2014
26 Keats Way 422900 429900 MultiFlr,TwnIntUn 2 2.1 0 6/9/2014
21 Maxine Drive 447500 485000 SplitLev, 4 2.1 11 6/6/2014
66 Village Drive 299500 293500 OneFloor, 2 2 32 6/6/2014
19 Molly Stark Drive 442500 449000 Ranch, 3 2.1 6 6/6/2014
14 Applewood Lane 650000 649900 Colonial, 4 2.1 62 6/4/2014
26 Fairchild Avenue 420000 419000 Colonial, 3 1 8 6/4/2014
30 Northbridge Place 601500 575000 TwnEndUn,MultiFlr 3 2.1 11 6/3/2014
6 Brothers Place 572000 589000 SplitLev, 4 3 20 6/2/2014
154 Mt Kemble Avenue 500000 519000 Colonial, 3 2.1 10 6/2/2014

Morristown NJ Real Estate Sales For May 2014

IMG_9412For the month of May 2014 there were 12 homes sold in Morristown NJ. Currently there are 60 homes that are available for sale and there are 39 houses that are currently under contract.

The current absorption rate was around 4.00 months for May. A balance market is considered between 5-7 months, so right now Morristown is strongly a seller’s market as homes are selling rapidly in Morristown and there are few houses available for sale.

Below are the Morristown NJ real estate sales for May 2014:

Street Number Street Name Sales Price List Price Style Of Home Beds Bath Days On Market Closing Date
3 Dorado Drive F 333380 318000 TwnEndUn,MultiFlr 2 2.1 14 5/30/2014
18 Kenmuir Avenue 440000 485000 Colonial, 4 2.1 68 5/28/2014
15 Taft Lane 435000 435000 TwnIntUn,MultiFlr 2 2.1 16 5/28/2014
31 Budd Street 249300 299900 Colonial, 3 1 108 5/27/2014
34 Windmill Drive 450000 465000 TwnIntUn,MultiFlr 3 2.1 43 5/27/2014
202 Speedwell Avenue 370000 367500 Colonial,Detached 4 2.1 46 5/23/2014
77 Morris Avenue 472500 499850 Colonial, 3 1.1 114 5/14/2014
21 Green Hill Road 286000 274900 Contemp, 3 2 123 5/12/2014
24 Clinton Plane 98000 120000 Colonial, 2 1 247 5/9/2014
320 South St 16B 295000 299000 TwnIntUn,MultiFlr 2 2.1 77 5/7/2014
44 Chestnut St Apt 1 417000 415000 TwnEndUn,MultiFlr 3 2.1 15 5/5/2014
40 Park Avenue 1555000 1699900 OneFloor, 2 3 73 5/1/2014

Morris Township NJ Real Estate Sales For May 2014

IMG_9419For the month of May 2014 there were 22 homes sold in Morris Township NJ. Currently there are 141 homes that are available for sale and there are 83 houses that are currently under contract.

The current absorption rate was around 3.83 months for May. A balance market is considered between 5-7 months, so right now Morris Township is strongly a seller’s market as homes are selling rapidly and there are few houses available for sale.

Below are the Morris Township NJ real estate sales for May 2014:

Street Number Street Name Sales Price List Price Style Of Home Beds Bath Days On Market Closing Date
56 Wildflower Lane 408500 397500 TwnIntUn,MultiFlr 2 3.1 20 5/29/2014
15 Ventosa Drive 675000 700000 Colonial, 5 3.1 17 5/27/2014
24 Burnham Road 435000 445000 CapeCod, 3 2.1 38 5/23/2014
14 Jonathan Smith Road 900000 949000 RanchExp,Colonial,Custom 5 3.1 38 5/23/2014
23 Oak Lane 440000 499900 Colonial, 4 2.1 41 5/23/2014
616 Pitney Plane 162000 173000 OneFloor, 1 1 70 5/22/2014
12 Valley View Road 495000 499000 Ranch, 3 1.1 32 5/22/2014
0 Lynnfield 749900 749900 Colonial, 5 3.1 47 5/21/2014
54 Witherspoon Court 375000 389000 TwnEndUn,MultiFlr 2 2.1 44 5/20/2014
26 Terry Drive 590000 599000 SplitLev, 4 2.1 58 5/16/2014
25 Terry Drive 499900 499900 SplitLev, 4 2.1 30 5/15/2014
4 Cabell Court 535000 535000 TwnIntUn,MultiFlr 2 2.1 32 5/15/2014
105 Fairchild Avenue 511000 529900 Bi-Level,Custom 4 3 96 5/14/2014
111 Pitney Place 185000 187500 OneFloor, 1 1 14 5/14/2014
24 Normandy Heights Road 725000 715000 Colonial, 5 3.1 14 5/13/2014
4 Keats Way 420000 415000 TwnIntUn,MultiFlr 2 2.1 7 5/9/2014
10 Locust Street 212500 245000 Colonial,FixrUppr 3 1 139 5/8/2014
22 Lord WM Penn Drive 800000 799900 Colonial, 6 3.1 21 5/7/2014
24 Gate House Court 475000 465000 TwnIntUn,MultiFlr 3 3 20 5/7/2014
52 Spring Valley Road 1650000 1825000 Colonial,Custom,Meditter 8 8.2 390 5/5/2014
8 Keats Way 425000 434900 TwnEndUn,MultiFlr,Contemp 2 2.1 49 5/2/2014
1 Morris Place 449900 449900 Ranch, 4 2.1 10 5/2/2014
14 Old Glen Road 719000 739000 Colonial, 4 2.1 64 5/1/2014

Morristown NJ Real Estate Sales For April 2014

IMG_9426For the month of April 2014 there were 14 homes sold in Morristown NJ. Currently there are 53 homes that are available for sale and there are 40 houses that are currently under contract.

The current absorption rate was around 4.15 months for April. A balance market is considered between 5-7 months, so right now Morristown is strongly a seller’s market as homes are selling rapidly in Morristown and there are few houses available for sale.

Below are the Morristown NJ real estate sales for April 2014:

Street Number Street Name Sales Price List Price Style Of Home Beds Bath Days On Market Closing Date
72 W Valley View Drive 435000 449900 SplitLev, 3 2 129 4/28/2014
73 Miller Road 1650000 1897000 Victrian, 7 4.2 347 4/25/2014
26 King Street Unit 1B 271500 285000 FirstFlr,OneFloor 1 1 27 4/22/2014
2 Lynn Court 415000 425000 TwnIntUn,MultiFlr 3 2.1 21 4/21/2014
320 South St 11N 187500 192500 OneFloor, 1 1 25 4/18/2014
32 Conklin Avenue 412000 415000 Ranch, 3 2 23 4/17/2014
48-C Ridgedale Avenue 339900 339900 TwnEndUn,MultiFlr 2 1.1 8 4/17/2014
61 Mt. Kemble Avenue 101 265000 269500 OneFloor, 2 2 11 4/16/2014
13 Dogwood Road 510000 525000 SplitLev, 4 2 45 4/15/2014
40 W Park Place Unit 402 640000 649900 OneFloor, 2 2 86 4/14/2014
13 Franklin Place, 7E 480000 495000 TwnIntUn,MultiFlr 3 2.1 23 4/11/2014
8-C Garden Street 219000 230000 TwnEndUn,MultiFlr,SeeRem 2 2 36 4/9/2014
320 South St 16C 284000 299900 MultiFlr, 2 2.1 133 4/2/2014
2 Rona Road 421250 434000 TwnIntUn,MultiFlr 2 2.1 24 4/1/2014

Morris Township NJ Real Estate Sales For April 2014

IMG_9412For the month of April 2014 there were 24 homes sold in Morris Township NJ. Currently there are 114 homes that are available for sale and there are 81 houses that are currently under contract.

The current absorption rate was around 4.00 months for April. A balance market is considered between 5-7 months, so right now Morris Township is strongly a seller’s market as homes are selling rapidly and there are few houses available for sale.

Below are the Morris Township NJ real estate sales for April 2014:

Street Number Street Name Sales Price List Price Style Of Home Beds Bath Days On Market Closing Date
30 Tall Timber Drive 875000 875000 Colonial,Develpmt,Custom 5 3.1 13 4/30/2014
11 Mill Road 430000 424900 Colonial, 3 1.1 13 4/30/2014
24 Hilltop Circle 865000 897500 Colonial, 5 3.1 176 4/25/2014
5 Center Avenue Unit 3 251000 250000 TwnEndUn,MultiFlr 1 1.1 16 4/25/2014
198 Mendham Road 430000 579000 Ranch, 4 3 266 4/23/2014
196 Mendham Road 400000 449000 Ranch, 3 2 165 4/23/2014
4 Livingston Road 270500 275000 TwnEndUn,MultiFlr 3 1.1 151 4/22/2014
45 Old Glen Road 663000 669000 Colonial,SplitLev 3 2.1 70 4/22/2014
53 Spring Valley Road 800000 825000 Custom, 4 4 36 4/22/2014
14 Witherspoon Court 361000 365000 TwnEndUn,MultiFlr 2 2.1 11 4/20/2014
48 Burnham Road 452500 459999 CapeCod, 3 2 23 4/17/2014
12 Ferndale Avenue 577500 595000 SplitLev, 4 2.1 19 4/17/2014
6 Manor Drive 892500 925000 Custom,Contemp 5 3.1 156 4/15/2014
67 Redner Road 567450 599500 TwnEndUn,MultiFlr 3 2.1 101 4/15/2014
11 Valley View Road 685000 685000 Colonial, 4 3.1 18 4/15/2014
12 Thomas Paine Road 447000 465000 TwnIntUn,MultiFlr 3 2.1 35 4/14/2014
58 Village Drive 100402 100402 FirstFlr,OneFloor 3 1 77 4/11/2014
51 Alexandria Road 650000 639000 Colonial, 4 2.1 9 4/11/2014
53 Spring Brook Road 1112000 1149000 Colonial,Custom 4 4.1 77 4/8/2014
14 Jason Lane 730000 750000 Colonial, 5 2.1 206 4/7/2014
3 Jonathan Smith Road 868000 879000 Colonial, 5 3.1 31 4/6/2014
9 Exeter Lane 737000 729900 Ranch, 4 3.1 18 4/4/2014
183 Western Avenue 575000 595000 Colonial, 3 2.1 0 4/4/2014
8 Armstrong Road 685000 769000 Colonial, 3 3 181 4/1/2014

 

Morristown NJ Real Estate Sales For March 2014

IMG_9426For the month of March 2014 there were 8 homes sold in Morristown NJ.  Currently there are 47 homes that are available for sale and there are 36 houses that are currently under contract.

The current absorption rate was around 6.71 months for March.  A balance market is considered between 5-7 months, so right now Morristown is strongly a balance market as homes are selling rapidly in Morristown and there are enough houses available for sale.

Below are the Morristown NJ real estate sales for March 2014:

Street Number Street Name Sales Price List Price Style Of Home Beds Bath Days On Market Closing Date
7 Prospect Street Unit 407 332000 339900 OneFloor,HighRise 1 1 17 3/26/2014
44 Ridgedale Avenue 300000 330000 TwnIntUn,MultiFlr 1 1.1 89 3/18/2014
19 Windmill Drive 365000 385000 TwnIntUn,MultiFlr 2 2.1 36 3/17/2014
110 South Street 730000 675000 MultiFlr,FirstFlr 2 2 5 3/17/2014
7 Lynn Court 385000 399900 TwnIntUn,MultiFlr 2 2.1 78 3/14/2014
109 Mills Street 399900 399900 Colonial, 3 1.1 119 3/13/2014
67 Washington Avenue 490000 499000 Ranch, 4 2 78 3/6/2014
41 Windmill Drive 389900 389900 TwnIntUn,MultiFlr 2 2.1 10 3/6/2014

Morris Township NJ Real Estate Sales For March 2014

IMG_9412For the month of March 2014 there were 12 homes sold in Morris Township NJ. Currently there are 95 homes that are available for sale and there are 54 houses that are currently under contract.

The current absorption rate was around 5.56 months for March. A balance market is considered between 5-7 months, so right now Morris Township is a balance market as homes are selling rapidly in Morris Township and there are houses available for sale.

Below are the Morris Township NJ real estate sales for March 2014:

 

Street Number Street Name Sales Price List Price Style Of Home Beds Bath Days On Market Closing Date
9 Norwood Court 885000 897500 Colonial, 5 3.1 21 3/31/2014
16 Buckley Hill Road 749000 749000 Colonial, 4 3.1 9 3/31/2014
1 Symor Drive 350000 425000 RanchRas, 3 1.1 10 3/30/2014
1 Delaware Road 516000 550000 Bi-Level, 4 2.2 75 3/28/2014
6 Tracy Court 452500 479000 SplitLev, 4 2.1 73 3/27/2014
20 Starlight Drive 515000 519000 Ranch, 3 2 12 3/27/2014
12 Arbor Way 500000 499900 Ranch, 3 2 27 3/26/2014
9 Cadence Court 459000 459000 TwnEndUn,MultiFlr 2 2.1 8 3/21/2014
45 Canfield Road 1105000 1199000 Colonial, 5 4 54 3/13/2014
11 Timothy Court 365000 385000 TwnEndUn,MultiFlr 2 2.1 108 3/12/2014
20 Searing Avenue 430000 435000 Colonial, 4 3 12 3/11/2014
608 Pitney Plane 162500 176500 FirstFlr,MultiFlr 1 1 92 3/3/2014

 

Morristown Activities This Weekend

a-game-of-thrones-book-1-197x300Spring is near and what a way to welcome the new season by getting out of the house and enjoy Morristown activities this weekend! We’ve got concerts, health and wellness, art exhibit, opera, Whippany River clean up, Game Of Thrones free discussion, adult only puppet show and so much more. All these and more in Morristown activities this weekend:

http://morristowngreen.com/2014/03/20/greater-morristown-weekend-preview-from-heavenly-harps-to-baudy-puppets/

Morristown Activities This Weekend

IMG_1831-300x225Check out Morristown activities this weekend headlined by the 36th Annual Morris County St. Patrick’s Parade this Saturday. We also have other great events in store for you. All this and more, this week in Morristown:

http://morristowngreen.com/2014/03/13/greater-morristown-weekend-preview-we-love-a-parade-2/